createdAt,value
2018-06-23T00:01:26.800Z,13.13
2018-06-23T00:03:55.520Z,13.07
2018-06-23T00:06:24.138Z,13.16
2018-06-23T00:08:52.780Z,13.27
2018-06-23T00:11:21.383Z,13.26
2018-06-23T00:13:50.003Z,13.13
2018-06-23T00:16:18.615Z,13.07
2018-06-23T00:18:47.190Z,13.17
2018-06-23T00:21:15.787Z,13.17
2018-06-23T00:23:44.388Z,13.18
2018-06-23T00:26:18.307Z,13.10
2018-06-23T00:28:46.867Z,13.18
2018-06-23T00:31:15.496Z,13.21
2018-06-23T00:33:44.099Z,13.25
2018-06-23T00:36:12.718Z,13.18
2018-06-23T00:38:41.340Z,13.21
2018-06-23T00:41:09.932Z,13.22
2018-06-23T00:43:38.491Z,13.24
2018-06-23T00:46:07.151Z,13.26
2018-06-23T00:48:35.851Z,13.28
2018-06-23T00:51:04.435Z,13.32
2018-06-23T00:53:33.032Z,13.38
2018-06-23T00:56:01.899Z,13.32
2018-06-23T00:58:37.179Z,13.32
2018-06-23T01:01:05.818Z,13.24
2018-06-23T01:03:34.464Z,13.18
2018-06-23T01:06:03.154Z,13.15
2018-06-23T01:08:31.779Z,13.06
2018-06-23T01:11:00.363Z,13.02
2018-06-23T01:13:29.010Z,12.88
2018-06-23T01:15:57.609Z,12.77
2018-06-23T01:18:26.191Z,12.72
2018-06-23T01:20:54.795Z,12.65
2018-06-23T01:23:23.344Z,12.59
2018-06-23T01:25:51.923Z,12.62
2018-06-23T01:28:20.622Z,12.64
2018-06-23T01:30:49.227Z,12.65
2018-06-23T01:33:17.798Z,12.61
2018-06-23T01:35:46.455Z,12.51
2018-06-23T01:38:15.063Z,10.16
2018-06-23T01:40:43.642Z,12.54
2018-06-23T01:43:12.224Z,12.54
2018-06-23T01:45:40.830Z,12.62
2018-06-23T01:48:09.446Z,12.60
2018-06-23T01:50:38.010Z,12.55
2018-06-23T01:53:06.644Z,12.56
2018-06-23T01:55:35.252Z,12.53
2018-06-23T01:58:03.912Z,12.54
2018-06-23T02:00:32.542Z,12.52
2018-06-23T02:03:01.204Z,12.57
2018-06-23T02:05:29.824Z,12.60
2018-06-23T02:07:58.406Z,12.52
2018-06-23T02:10:27.006Z,12.53
2018-06-23T02:12:55.634Z,12.61
2018-06-23T02:16:33.523Z,12.66
2018-06-23T02:19:07.657Z,12.62
2018-06-23T02:21:41.629Z,12.65
2018-06-23T02:24:15.489Z,12.64
2018-06-23T02:26:49.203Z,12.75
2018-06-23T02:29:23.023Z,12.85
2018-06-23T02:31:56.851Z,12.73
2018-06-23T02:34:30.725Z,12.65
2018-06-23T02:36:59.415Z,12.58
2018-06-23T02:39:28.013Z,12.48
2018-06-23T02:41:56.597Z,12.52
2018-06-23T02:44:25.194Z,12.56
2018-06-23T02:46:53.806Z,12.56
2018-06-23T02:49:22.606Z,12.42
2018-06-23T02:51:51.182Z,12.33
2018-06-23T02:54:19.784Z,12.44
2018-06-23T02:56:48.670Z,12.45
2018-06-23T02:59:19.433Z,12.46
2018-06-23T03:01:49.236Z,12.48
2018-06-23T03:04:18.465Z,12.48
2018-06-23T03:06:47.067Z,12.48
2018-06-23T03:09:15.641Z,12.53
2018-06-23T03:11:44.233Z,12.42
2018-06-23T03:14:12.811Z,12.40
2018-06-23T03:16:41.400Z,12.24
2018-06-23T03:19:10.010Z,12.29
2018-06-23T03:21:38.601Z,12.29
2018-06-23T03:24:07.203Z,12.37
2018-06-23T03:26:35.770Z,12.45
2018-06-23T03:29:04.525Z,12.44
2018-06-23T03:31:33.202Z,12.34
2018-06-23T03:34:01.806Z,12.29
2018-06-23T03:36:30.410Z,12.27
2018-06-23T03:38:59.022Z,12.37
2018-06-23T03:41:27.615Z,12.38
2018-06-23T03:43:56.174Z,12.37
2018-06-23T03:46:24.765Z,12.39
2018-06-23T03:48:53.356Z,12.37
2018-06-23T03:51:21.995Z,12.32
2018-06-23T03:53:50.621Z,12.29
2018-06-23T03:56:19.242Z,12.26
2018-06-23T03:58:47.874Z,12.32
2018-06-23T04:01:16.465Z,12.38
2018-06-23T04:03:45.088Z,12.43
2018-06-23T04:06:13.723Z,12.48
2018-06-23T04:08:42.336Z,12.46
2018-06-23T04:11:11.030Z,12.53
2018-06-23T04:13:39.665Z,12.48
2018-06-23T04:16:08.302Z,11.69
2018-06-23T04:18:36.909Z,12.48
2018-06-23T04:21:05.590Z,12.42
2018-06-23T04:23:34.155Z,12.44
2018-06-23T04:26:02.788Z,12.53
2018-06-23T04:28:31.394Z,12.48
2018-06-23T04:31:00.927Z,12.50
2018-06-23T04:33:29.499Z,12.44
2018-06-23T04:35:58.071Z,12.44
2018-06-23T04:38:26.694Z,12.46
2018-06-23T04:40:55.302Z,12.58
2018-06-23T04:43:23.955Z,12.58
2018-06-23T04:45:52.552Z,12.58
2018-06-23T04:48:21.155Z,12.61
2018-06-23T04:50:50.634Z,12.58
2018-06-23T04:53:19.577Z,12.53
2018-06-23T04:55:49.993Z,12.37
2018-06-23T04:58:18.561Z,12.32
2018-06-23T05:00:47.168Z,12.24
2018-06-23T05:03:15.837Z,12.13
2018-06-23T05:05:44.483Z,12.03
2018-06-23T05:08:13.060Z,11.99
2018-06-23T05:10:41.655Z,12.01
2018-06-23T05:13:10.264Z,11.91
2018-06-23T05:15:38.911Z,11.83
2018-06-23T05:18:07.476Z,11.82
2018-06-23T05:20:36.190Z,11.89
2018-06-23T05:23:04.809Z,11.92
2018-06-23T05:25:33.399Z,11.88
2018-06-23T05:28:02.118Z,11.90
2018-06-23T05:30:30.789Z,11.80
2018-06-23T05:32:59.434Z,11.83
2018-06-23T05:35:28.053Z,11.81
2018-06-23T05:37:56.727Z,11.63
2018-06-23T05:40:25.334Z,11.61
2018-06-23T05:42:54.002Z,11.60
2018-06-23T05:45:22.650Z,11.59
2018-06-23T05:47:51.311Z,11.56
2018-06-23T05:50:19.993Z,11.56
2018-06-23T05:52:48.667Z,11.41
2018-06-23T05:55:17.262Z,11.45
2018-06-23T05:57:45.907Z,11.44
2018-06-23T06:00:14.527Z,11.40
2018-06-23T06:02:43.199Z,11.43
2018-06-23T06:05:11.834Z,11.35
2018-06-23T06:07:40.457Z,11.37
2018-06-23T06:10:09.104Z,11.28
2018-06-23T06:12:37.722Z,11.21
2018-06-23T06:15:06.497Z,11.16
2018-06-23T06:17:36.366Z,10.93
2018-06-23T06:20:06.701Z,10.81
2018-06-23T06:22:39.493Z,10.70
2018-06-23T06:25:08.819Z,10.66
2018-06-23T06:27:37.514Z,10.67
2018-06-23T06:30:07.274Z,10.67
2018-06-23T06:32:36.183Z,10.66
2018-06-23T06:35:05.161Z,10.75
2018-06-23T06:37:33.816Z,10.80
2018-06-23T06:40:02.484Z,10.85
2018-06-23T06:42:31.099Z,10.82
2018-06-23T06:44:59.711Z,10.89
2018-06-23T06:47:28.347Z,10.93
2018-06-23T06:49:56.942Z,10.99
2018-06-23T06:52:25.515Z,11.05
2018-06-23T06:54:54.179Z,11.18
2018-06-23T06:57:23.020Z,11.33
2018-06-23T06:59:51.633Z,11.46
2018-06-23T07:02:20.283Z,11.54
2018-06-23T07:04:49.014Z,11.57
2018-06-23T07:07:17.676Z,11.66
2018-06-23T07:09:46.502Z,11.79
2018-06-23T07:12:15.130Z,11.90
2018-06-23T07:14:43.967Z,12.05
2018-06-23T07:17:12.770Z,12.27
2018-06-23T07:19:41.499Z,12.31
2018-06-23T07:22:10.472Z,12.45
2018-06-23T07:24:39.281Z,12.76
2018-06-23T07:27:07.950Z,13.14
2018-06-23T07:29:36.580Z,13.30
2018-06-23T07:32:05.450Z,13.13
2018-06-23T07:34:34.213Z,13.06
2018-06-23T07:37:02.771Z,13.30
2018-06-23T07:39:31.590Z,13.35
2018-06-23T07:42:00.182Z,13.28
2018-06-23T07:44:28.782Z,13.27
2018-06-23T07:46:57.382Z,13.27
2018-06-23T07:49:26.191Z,13.36
2018-06-23T07:51:54.788Z,13.58
2018-06-23T07:54:24.039Z,13.90
2018-06-23T07:56:52.715Z,14.09
2018-06-23T07:59:21.286Z,14.08
2018-06-23T08:01:49.970Z,14.12
2018-06-23T08:04:18.563Z,14.32
2018-06-23T08:06:47.191Z,14.26
2018-06-23T08:09:15.851Z,14.34
2018-06-23T08:11:44.512Z,14.73
2018-06-23T08:14:13.482Z,15.08
2018-06-23T08:16:42.564Z,15.04
2018-06-23T08:19:11.145Z,14.99
2018-06-23T08:21:39.740Z,15.50
2018-06-23T08:24:08.487Z,15.85
2018-06-23T08:26:37.291Z,15.42
2018-06-23T08:29:05.850Z,15.86
2018-06-23T08:31:34.539Z,15.87
2018-06-23T08:34:03.253Z,15.57
2018-06-23T08:36:31.870Z,16.16
2018-06-23T08:39:00.507Z,15.79
2018-06-23T08:41:29.100Z,15.77
2018-06-23T08:43:57.963Z,16.33
2018-06-23T08:46:26.591Z,16.93
2018-06-23T08:48:55.188Z,17.13
2018-06-23T08:51:23.852Z,17.27
2018-06-23T08:53:52.483Z,16.85
2018-06-23T08:56:21.082Z,17.00
2018-06-23T08:58:49.787Z,17.62
2018-06-23T09:01:18.396Z,17.76
2018-06-23T09:03:47.002Z,17.55
2018-06-23T09:06:15.630Z,17.36
2018-06-23T09:08:44.235Z,17.93
2018-06-23T09:11:12.914Z,17.55
2018-06-23T09:13:42.258Z,18.10
2018-06-23T09:16:10.907Z,18.81
2018-06-23T09:18:40.355Z,18.34
2018-06-23T09:21:08.984Z,17.72
2018-06-23T09:23:37.626Z,17.03
2018-06-23T09:26:06.300Z,17.27
2018-06-23T09:28:34.900Z,17.89
2018-06-23T09:31:03.482Z,18.85
2018-06-23T09:33:32.090Z,19.19
2018-06-23T09:36:00.707Z,19.01
2018-06-23T09:38:29.596Z,19.26
2018-06-23T09:40:58.214Z,18.69
2018-06-23T09:43:26.798Z,17.99
2018-06-23T09:45:55.503Z,17.93
2018-06-23T09:48:24.064Z,18.89
2018-06-23T09:50:52.671Z,19.63
2018-06-23T09:53:22.588Z,19.77
2018-06-23T09:55:51.305Z,19.48
2018-06-23T09:58:20.118Z,19.95
2018-06-23T10:00:48.691Z,19.94
2018-06-23T10:03:17.428Z,20.28
2018-06-23T10:05:46.331Z,19.73
2018-06-23T10:08:14.946Z,19.37
2018-06-23T10:10:44.133Z,20.03
2018-06-23T10:13:12.815Z,19.84
2018-06-23T10:15:42.111Z,19.53
2018-06-23T10:18:10.739Z,19.25
2018-06-23T10:20:39.431Z,18.64
2018-06-23T10:23:08.138Z,20.11
2018-06-23T10:25:36.824Z,21.05
2018-06-23T10:28:05.760Z,21.32
2018-06-23T10:30:34.377Z,21.26
2018-06-23T10:33:03.259Z,21.26
2018-06-23T10:35:31.879Z,21.46
2018-06-23T10:38:00.627Z,21.82
2018-06-23T10:40:29.258Z,21.63
2018-06-23T10:42:57.866Z,21.72
2018-06-23T10:45:26.616Z,21.79
2018-06-23T10:47:55.249Z,21.63
2018-06-23T10:50:23.858Z,22.31
2018-06-23T10:52:52.476Z,22.18
2018-06-23T10:55:21.093Z,22.33
2018-06-23T10:57:49.721Z,22.08
2018-06-23T11:00:18.343Z,22.02
2018-06-23T11:02:46.970Z,22.56
2018-06-23T11:05:15.719Z,22.84
2018-06-23T11:07:44.395Z,22.30
2018-06-23T11:10:13.536Z,21.68
2018-06-23T11:12:42.137Z,21.95
2018-06-23T11:15:10.824Z,22.18
2018-06-23T11:17:39.811Z,21.76
2018-06-23T11:20:08.450Z,21.58
2018-06-23T11:22:37.045Z,22.05
2018-06-23T11:25:06.089Z,22.62
2018-06-23T11:27:34.731Z,21.94
2018-06-23T11:30:03.492Z,21.72
2018-06-23T11:32:32.061Z,22.15
2018-06-23T11:35:00.679Z,22.09
2018-06-23T11:37:29.283Z,22.16
2018-06-23T11:39:57.970Z,21.76
2018-06-23T11:42:26.641Z,21.21
2018-06-23T11:44:55.320Z,21.86
2018-06-23T11:47:24.173Z,22.16
2018-06-23T11:49:53.042Z,22.44
2018-06-23T11:52:21.665Z,22.13
2018-06-23T11:54:50.239Z,21.98
2018-06-23T11:57:18.950Z,22.08
2018-06-23T11:59:47.537Z,22.50
2018-06-23T12:02:16.256Z,22.10
2018-06-23T12:04:44.838Z,22.15
2018-06-23T12:07:13.436Z,22.00
2018-06-23T12:09:42.032Z,21.69
2018-06-23T12:12:10.658Z,21.94
2018-06-23T12:14:39.261Z,22.49
2018-06-23T12:17:07.837Z,22.19
2018-06-23T12:19:36.463Z,22.05
2018-06-23T12:22:05.100Z,22.07
2018-06-23T12:24:33.702Z,21.76
2018-06-23T12:27:02.288Z,21.91
2018-06-23T12:29:31.799Z,21.59
2018-06-23T12:32:01.212Z,21.52
2018-06-23T12:34:29.867Z,21.26
2018-06-23T12:36:58.510Z,21.35
2018-06-23T12:39:27.581Z,21.35
2018-06-23T12:41:56.416Z,21.45
2018-06-23T12:44:25.096Z,21.49
2018-06-23T12:46:54.234Z,21.31
2018-06-23T12:49:22.822Z,21.03
2018-06-23T12:51:51.567Z,20.94
2018-06-23T12:54:20.155Z,20.82
2018-06-23T12:56:48.808Z,20.70
2018-06-23T12:59:17.611Z,20.83
2018-06-23T13:01:46.271Z,21.10
2018-06-23T13:04:14.934Z,21.05
2018-06-23T13:06:43.883Z,21.49
2018-06-23T13:09:13.118Z,22.00
2018-06-23T13:11:41.808Z,22.96
2018-06-23T13:14:10.689Z,23.03
2018-06-23T13:16:39.328Z,23.42
2018-06-23T13:19:07.915Z,23.97
2018-06-23T13:21:36.615Z,24.34
2018-06-23T13:24:05.333Z,24.86
2018-06-23T13:26:34.035Z,25.06
2018-06-23T13:29:02.791Z,25.07
2018-06-23T13:31:31.786Z,24.76
2018-06-23T13:34:01.512Z,22.79
2018-06-23T13:36:30.131Z,20.81
2018-06-23T13:38:58.896Z,20.10
2018-06-23T13:41:27.550Z,19.92
2018-06-23T13:43:56.132Z,20.01
2018-06-23T13:46:24.843Z,19.97
2018-06-23T13:48:53.444Z,19.88
2018-06-23T13:51:22.067Z,19.72
2018-06-23T13:53:50.668Z,19.69
2018-06-23T13:56:19.274Z,19.79
2018-06-23T13:58:47.978Z,19.91
2018-06-23T14:01:16.601Z,20.00
2018-06-23T14:03:45.296Z,19.92
2018-06-23T14:06:14.012Z,19.73
2018-06-23T14:08:42.603Z,19.47
2018-06-23T14:11:11.282Z,19.63
2018-06-23T14:13:39.952Z,19.70
2018-06-23T14:16:08.605Z,19.64
2018-06-23T14:18:37.208Z,19.65
2018-06-23T14:21:05.875Z,19.84
2018-06-23T14:23:34.570Z,19.79
2018-06-23T14:26:03.250Z,19.81
2018-06-23T14:28:31.862Z,20.10
2018-06-23T14:31:00.534Z,20.02
2018-06-23T14:33:29.120Z,19.58
2018-06-23T14:35:58.707Z,19.54
2018-06-23T14:38:27.328Z,19.34
2018-06-23T14:40:55.991Z,19.34
2018-06-23T14:43:24.593Z,19.26
2018-06-23T14:45:53.226Z,19.25
2018-06-23T14:48:21.870Z,19.38
2018-06-23T14:50:50.518Z,19.55
2018-06-23T14:53:19.099Z,19.29
2018-06-23T14:55:47.930Z,19.30
2018-06-23T14:58:16.596Z,19.26
2018-06-23T15:00:45.211Z,19.24
2018-06-23T15:03:14.013Z,19.24
2018-06-23T15:05:42.597Z,19.29
2018-06-23T15:08:23.224Z,19.21
2018-06-23T15:11:02.955Z,19.25
2018-06-23T15:13:31.605Z,19.36
2018-06-23T15:16:00.248Z,19.40
2018-06-23T15:18:28.877Z,19.33
2018-06-23T15:20:57.691Z,19.27
2018-06-23T15:23:26.313Z,19.21
2018-06-23T15:25:54.924Z,19.30
2018-06-23T15:28:23.606Z,19.39
2018-06-23T15:30:52.193Z,19.32
2018-06-23T15:33:21.110Z,19.16
2018-06-23T15:35:49.718Z,19.07
2018-06-23T15:38:18.363Z,18.98
2018-06-23T15:40:46.921Z,19.13
2018-06-23T15:43:15.669Z,19.08
2018-06-23T15:45:44.315Z,19.05
2018-06-23T15:48:12.877Z,18.97
2018-06-23T15:50:41.483Z,18.98
2018-06-23T15:53:10.189Z,18.94
2018-06-23T15:55:39.124Z,18.92
2018-06-23T15:58:08.020Z,18.88
2018-06-23T16:00:37.453Z,18.85
2018-06-23T16:03:06.282Z,18.80
2018-06-23T16:05:35.479Z,18.81
2018-06-23T16:08:04.807Z,18.74
2018-06-23T16:10:34.432Z,18.80
2018-06-23T16:13:03.109Z,18.81
2018-06-23T16:15:31.806Z,18.70
2018-06-23T16:18:00.432Z,18.84
2018-06-23T16:20:29.428Z,18.78
2018-06-23T16:22:58.466Z,18.65
2018-06-23T16:25:28.027Z,18.65
2018-06-23T16:27:57.129Z,18.62
2018-06-23T16:30:26.650Z,18.52
2018-06-23T16:32:55.495Z,18.53
2018-06-23T16:35:24.489Z,18.52
2018-06-23T16:37:53.095Z,18.48
2018-06-23T16:40:21.972Z,18.38
2018-06-23T16:42:50.627Z,18.41
2018-06-23T16:45:19.658Z,18.35
2018-06-23T16:47:48.879Z,18.25
2018-06-23T16:50:17.756Z,18.29
2018-06-23T16:52:46.997Z,18.36
2018-06-23T16:55:15.779Z,18.24
2018-06-23T16:57:44.398Z,18.13
2018-06-23T17:00:13.230Z,18.10
2018-06-23T17:02:43.980Z,18.04
2018-06-23T17:05:12.664Z,17.90
2018-06-23T17:07:41.451Z,17.83
2018-06-23T17:10:10.200Z,17.78
2018-06-23T17:12:39.007Z,17.73
2018-06-23T17:15:07.730Z,17.73
2018-06-23T17:17:36.368Z,17.66
2018-06-23T17:20:05.190Z,17.58
2018-06-23T17:22:34.557Z,17.56
2018-06-23T17:25:03.268Z,17.54
2018-06-23T17:27:31.950Z,17.53
2018-06-23T17:30:00.867Z,17.49
2018-06-23T17:32:29.479Z,17.38
2018-06-23T17:34:58.428Z,17.39
2018-06-23T17:37:27.564Z,17.34
2018-06-23T17:39:56.256Z,17.28
2018-06-23T17:42:24.864Z,17.22
2018-06-23T17:44:53.556Z,17.15
2018-06-23T17:47:22.229Z,17.10
2018-06-23T17:49:50.948Z,16.85
2018-06-23T17:52:19.742Z,16.93
2018-06-23T17:54:48.486Z,16.81
2018-06-23T17:57:17.326Z,16.82
2018-06-23T17:59:46.242Z,16.77
2018-06-23T18:02:14.976Z,16.78
2018-06-23T18:04:43.622Z,16.75
2018-06-23T18:07:12.413Z,16.77
2018-06-23T18:09:41.094Z,16.75
2018-06-23T18:12:10.190Z,16.65
2018-06-23T18:14:39.356Z,16.56
2018-06-23T18:17:08.099Z,16.49
2018-06-23T18:19:36.820Z,16.44
2018-06-23T18:22:05.615Z,16.39
2018-06-23T18:24:34.367Z,16.37
2018-06-23T18:27:03.247Z,16.28
2018-06-23T18:29:31.985Z,16.28
2018-06-23T18:32:00.717Z,16.21
2018-06-23T18:34:30.398Z,16.18
2018-06-23T18:36:59.163Z,16.12
2018-06-23T18:39:28.038Z,16.07
2018-06-23T18:41:56.882Z,15.96
2018-06-23T18:44:25.579Z,15.87
2018-06-23T18:46:54.800Z,16.06
2018-06-23T18:49:23.554Z,16.13
2018-06-23T18:51:52.299Z,16.13
2018-06-23T18:54:20.949Z,16.19
2018-06-23T18:56:49.627Z,16.07
2018-06-23T18:59:18.339Z,16.04
2018-06-23T19:01:47.348Z,15.93
2018-06-23T19:04:16.507Z,15.88
2018-06-23T19:06:45.333Z,15.87
2018-06-23T19:09:14.163Z,15.90
2018-06-23T19:11:42.846Z,15.84
2018-06-23T19:14:11.639Z,15.93
2018-06-23T19:16:40.354Z,15.90
2018-06-23T19:19:09.089Z,15.85
2018-06-23T19:21:37.800Z,15.76
2018-06-23T19:24:06.875Z,15.66
2018-06-23T19:26:35.772Z,15.57
2018-06-23T19:29:04.841Z,15.53
2018-06-23T19:31:33.728Z,15.55
2018-06-23T19:34:03.193Z,15.57
2018-06-23T19:36:32.044Z,15.55
2018-06-23T19:39:00.818Z,15.58
2018-06-23T19:41:30.395Z,15.59
2018-06-23T19:43:59.195Z,15.58
2018-06-23T19:46:27.788Z,15.59
2018-06-23T19:48:56.698Z,15.63
2018-06-23T19:51:25.711Z,15.62
2018-06-23T19:53:54.533Z,15.63
2018-06-23T19:56:23.227Z,15.63
2018-06-23T19:58:51.849Z,15.58
2018-06-23T20:01:20.492Z,15.66
2018-06-23T20:03:49.195Z,15.61
2018-06-23T20:06:17.806Z,15.61
2018-06-23T20:08:46.491Z,15.56
2018-06-23T20:11:15.159Z,15.44
2018-06-23T20:13:43.719Z,15.34
2018-06-23T20:16:12.430Z,15.30
2018-06-23T20:18:41.111Z,15.21
2018-06-23T20:21:09.769Z,15.19
2018-06-23T20:23:38.676Z,15.14
2018-06-23T20:26:07.292Z,15.05
2018-06-23T20:28:35.896Z,15.03
2018-06-23T20:31:04.907Z,15.01
2018-06-23T20:33:33.576Z,14.98
2018-06-23T20:36:02.250Z,14.95
2018-06-23T20:38:30.923Z,14.95
2018-06-23T20:40:59.507Z,14.93
2018-06-23T20:43:28.134Z,14.93
2018-06-23T20:45:57.562Z,14.89
2018-06-23T20:48:26.572Z,14.82
2018-06-23T20:50:55.379Z,14.87
2018-06-23T20:53:24.498Z,14.85
2018-06-23T20:55:53.420Z,14.81
2018-06-23T20:58:22.639Z,14.72
2018-06-23T21:00:51.259Z,14.74
2018-06-23T21:03:20.002Z,14.67
2018-06-23T21:05:48.638Z,14.63
2018-06-23T21:08:17.312Z,14.56
2018-06-23T21:10:47.296Z,14.50
2018-06-23T21:13:15.902Z,14.46
2018-06-23T21:15:44.530Z,14.41
2018-06-23T21:18:13.558Z,14.36
2018-06-23T21:20:42.214Z,14.35
2018-06-23T21:23:11.179Z,14.29
2018-06-23T21:25:39.798Z,14.32
2018-06-23T21:28:08.498Z,14.30
2018-06-23T21:30:37.088Z,14.28
2018-06-23T21:33:05.731Z,14.31
2018-06-23T21:35:34.375Z,14.30
2018-06-23T21:38:03.361Z,14.24
2018-06-23T21:40:32.078Z,14.19
2018-06-23T21:43:00.715Z,14.10
2018-06-23T21:45:29.719Z,14.05
2018-06-23T21:47:58.351Z,14.00
2018-06-23T21:50:26.961Z,13.94
2018-06-23T21:52:55.574Z,13.91
2018-06-23T21:55:24.154Z,13.86
2018-06-23T21:57:52.746Z,13.85
2018-06-23T22:00:30.885Z,13.80
2018-06-23T22:03:00.599Z,13.77
2018-06-23T22:05:29.642Z,13.77
2018-06-23T22:07:58.352Z,13.74
2018-06-23T22:10:27.857Z,13.72
2018-06-23T22:12:56.601Z,13.71
2018-06-23T22:15:25.579Z,13.71
2018-06-23T22:17:54.242Z,13.74
2018-06-23T22:20:22.831Z,13.71
2018-06-23T22:22:52.403Z,13.70
2018-06-23T22:25:21.843Z,13.70
2018-06-23T22:27:50.501Z,13.72
2018-06-23T22:30:19.667Z,13.73
2018-06-23T22:32:48.284Z,13.76
2018-06-23T22:35:16.914Z,13.80
2018-06-23T22:37:45.555Z,13.83
2018-06-23T22:40:14.178Z,13.80
2018-06-23T22:42:42.816Z,13.80
2018-06-23T22:45:11.539Z,13.72
2018-06-23T22:47:40.118Z,13.76
2018-06-23T22:50:09.585Z,13.67
2018-06-23T22:52:38.495Z,13.69
2018-06-23T22:55:07.991Z,13.77
2018-06-23T22:57:36.684Z,13.71
2018-06-23T23:00:09.446Z,13.68
2018-06-23T23:02:38.103Z,13.60
2018-06-23T23:05:07.323Z,13.50
2018-06-23T23:07:36.003Z,13.52
2018-06-23T23:10:04.955Z,13.50
2018-06-23T23:12:33.551Z,13.40
2018-06-23T23:15:02.152Z,13.40
2018-06-23T23:17:30.972Z,13.41
2018-06-23T23:19:59.570Z,13.35
2018-06-23T23:22:28.226Z,13.26
2018-06-23T23:24:56.918Z,13.10
2018-06-23T23:27:25.555Z,12.98
2018-06-23T23:29:54.225Z,12.97
2018-06-23T23:32:22.882Z,12.93
2018-06-23T23:34:51.884Z,12.91
2018-06-23T23:37:20.528Z,12.87
2018-06-23T23:39:49.470Z,12.85
2018-06-23T23:42:18.064Z,12.87
2018-06-23T23:44:46.662Z,12.85
2018-06-23T23:47:15.254Z,12.84
2018-06-23T23:49:43.886Z,12.82
2018-06-23T23:52:12.442Z,12.78
2018-06-23T23:54:41.050Z,12.70
2018-06-23T23:57:09.702Z,12.65
2018-06-23T23:59:38.335Z,12.65
